Time;durP1;ratioP1;P1;durP2;ratioP2;P2;SDS_P1;SDS_P2;PMS_P1;PMS_P2;Temp;Humidity;BMP_temperature;BMP_pressure;BME280_temperature;BME280_humidity;BME280_pressure;Samples;Min_cycle;Max_cycle;Signal;HPM_P1;HPM_P2
2021/12/04 00:01:06;;;;;;;8.33;4.07;;;4.60;99.90;;;;;;5008650;28;20216;-67
2021/12/04 00:03:33;;;;;;;6.87;4.30;;;4.70;99.90;;;;;;5018687;28;20735;-67
2021/12/04 00:06:06;;;;;;;8.07;4.20;;;4.80;99.90;;;;;;5006894;28;20210;-67
2021/12/04 00:08:35;;;;;;;7.60;4.43;;;4.80;99.90;;;;;;5008887;28;20203;-67
2021/12/04 00:11:03;;;;;;;9.53;4.57;;;4.70;99.90;;;;;;5009231;28;20501;-64
2021/12/04 00:13:30;;;;;;;7.80;4.27;;;4.60;99.90;;;;;;5007071;28;20234;-67
2021/12/04 00:15:56;;;;;;;7.70;4.27;;;4.60;99.90;;;;;;5007784;28;20202;-67
2021/12/04 00:18:23;;;;;;;8.07;4.53;;;4.70;99.90;;;;;;5008228;28;20195;-67
2021/12/04 00:20:51;;;;;;;7.30;4.00;;;4.60;99.90;;;;;;4998679;28;20227;-67
2021/12/04 00:23:18;;;;;;;9.93;4.47;;;4.60;99.90;;;;;;5007558;28;20231;-67
2021/12/04 00:25:44;;;;;;;9.80;4.60;;;4.50;99.90;;;;;;5027357;28;20202;-67
2021/12/04 00:28:11;;;;;;;7.63;4.43;;;4.50;99.90;;;;;;5013590;28;20206;-67
2021/12/04 00:30:38;;;;;;;9.87;4.37;;;4.50;99.90;;;;;;5010553;28;20195;-67
2021/12/04 00:33:18;;;;;;;8.43;4.07;;;4.50;99.90;;;;;;5011962;28;20222;-67
2021/12/04 00:49:11;;;;;;;6.53;4.10;;;4.60;99.90;;;;;;5006410;28;20652;-67
2021/12/04 00:51:54;;;;;;;7.90;4.20;;;4.50;99.90;;;;;;5011422;28;20210;-67
2021/12/04 00:54:25;;;;;;;5.93;3.80;;;4.50;99.90;;;;;;5005627;28;20218;-67
2021/12/04 00:56:53;;;;;;;6.87;4.03;;;4.50;99.90;;;;;;5008355;28;20195;-66
2021/12/04 00:59:20;;;;;;;6.23;4.00;;;4.60;99.90;;;;;;5012321;28;20203;-66
2021/12/04 01:01:47;;;;;;;7.00;4.10;;;4.60;99.90;;;;;;5010906;28;20352;-66
2021/12/04 01:04:16;;;;;;;5.57;4.00;;;4.60;99.90;;;;;;5008667;28;20221;-66
2021/12/04 01:06:44;;;;;;;8.03;4.07;;;4.60;99.90;;;;;;5007257;28;20517;-66
2021/12/04 01:09:13;;;;;;;8.77;4.27;;;4.60;99.90;;;;;;5011142;28;20206;-66
2021/12/04 01:11:41;;;;;;;8.40;3.80;;;4.60;99.90;;;;;;5011322;28;20203;-66
2021/12/04 01:14:10;;;;;;;6.63;4.07;;;4.60;99.90;;;;;;5011476;28;20613;-66
2021/12/04 01:16:37;;;;;;;6.67;4.03;;;4.70;99.90;;;;;;5009983;28;20206;-66
2021/12/04 01:19:04;;;;;;;7.47;4.17;;;4.60;99.90;;;;;;5017289;28;20616;-66
2021/12/04 01:21:31;;;;;;;7.00;3.80;;;4.60;99.90;;;;;;5016487;28;20229;-66
2021/12/04 01:23:57;;;;;;;5.23;3.20;;;4.70;99.90;;;;;;5003411;28;20222;-66
2021/12/04 01:26:24;;;;;;;7.27;3.77;;;4.70;99.90;;;;;;5002244;28;20212;-66
2021/12/04 01:28:51;;;;;;;7.20;3.90;;;4.60;99.90;;;;;;5008193;28;20202;-67
2021/12/04 01:31:18;;;;;;;8.07;3.60;;;4.60;99.90;;;;;;5010976;28;20564;-67
2021/12/04 01:33:45;;;;;;;5.80;3.47;;;4.50;99.90;;;;;;5026179;28;20222;-66
2021/12/04 01:36:12;;;;;;;6.87;3.60;;;4.50;99.90;;;;;;5009215;28;20504;-67
2021/12/04 01:38:39;;;;;;;5.13;3.50;;;4.50;99.90;;;;;;5010583;28;20195;-66
2021/12/04 01:41:05;;;;;;;6.77;3.70;;;4.40;99.90;;;;;;5009481;28;20197;-66
2021/12/04 01:43:32;;;;;;;5.13;3.37;;;4.30;99.90;;;;;;5010818;28;20230;-67
2021/12/04 01:45:59;;;;;;;5.17;3.20;;;4.30;99.90;;;;;;5013632;28;20201;-66
2021/12/04 01:48:26;;;;;;;7.60;3.33;;;4.10;99.90;;;;;;5008576;28;20278;-67
2021/12/04 01:50:55;;;;;;;9.10;3.80;;;4.10;99.90;;;;;;5011660;28;20202;-67
2021/12/04 01:53:24;;;;;;;4.33;3.33;;;4.10;99.90;;;;;;5010459;28;20603;-67
2021/12/04 01:55:54;;;;;;;6.63;3.50;;;4.00;99.90;;;;;;5008906;28;20204;-67
2021/12/04 01:58:21;;;;;;;6.83;3.67;;;3.90;99.90;;;;;;5019527;28;20666;-67
2021/12/04 02:00:49;;;;;;;5.37;3.37;;;3.90;99.90;;;;;;5015368;28;20192;-67
2021/12/04 02:03:18;;;;;;;5.77;3.50;;;3.80;99.90;;;;;;5009524;28;20224;-64
2021/12/04 02:05:46;;;;;;;6.87;3.70;;;3.70;99.90;;;;;;5011866;28;20673;-66
2021/12/04 02:08:15;;;;;;;6.77;3.33;;;3.70;99.90;;;;;;5003501;28;20189;-67
2021/12/04 02:10:43;;;;;;;4.60;3.17;;;3.70;99.90;;;;;;5010171;28;20202;-67
2021/12/04 02:13:10;;;;;;;5.87;3.00;;;3.70;99.90;;;;;;5010541;28;20247;-67
2021/12/04 02:15:38;;;;;;;5.90;3.13;;;3.70;99.90;;;;;;5007350;28;20238;-67
2021/12/04 02:18:06;;;;;;;6.53;3.57;;;3.70;99.90;;;;;;5025124;28;20657;-67
2021/12/04 02:20:34;;;;;;;8.70;3.70;;;3.70;99.90;;;;;;5011963;28;20200;-67
2021/12/04 02:23:06;;;;;;;7.47;3.83;;;3.80;99.90;;;;;;5014714;28;20479;-66
2021/12/04 02:25:34;;;;;;;8.90;4.07;;;3.80;99.90;;;;;;5009578;28;20309;-67
2021/12/04 02:28:02;;;;;;;7.97;4.13;;;3.70;99.90;;;;;;5006325;28;20613;-67
2021/12/04 02:30:32;;;;;;;8.83;3.97;;;3.70;99.90;;;;;;5009284;28;20204;-67
2021/12/04 02:32:59;;;;;;;9.90;4.17;;;3.70;99.90;;;;;;5017023;28;20215;-67
2021/12/04 02:35:27;;;;;;;8.97;3.90;;;3.70;99.90;;;;;;5006510;28;20223;-66
2021/12/04 02:37:54;;;;;;;5.43;3.50;;;3.80;99.90;;;;;;5008415;28;20285;-67
2021/12/04 02:40:23;;;;;;;5.80;3.60;;;3.70;99.90;;;;;;5009843;28;20193;-67
2021/12/04 02:42:50;;;;;;;6.33;3.27;;;3.80;99.90;;;;;;5009931;28;20243;-67
2021/12/04 02:45:18;;;;;;;4.67;2.90;;;3.80;99.90;;;;;;5004729;28;20195;-66
2021/12/04 02:47:45;;;;;;;5.43;3.07;;;3.80;99.90;;;;;;5008853;28;20201;-67
2021/12/04 02:50:13;;;;;;;4.57;3.10;;;3.80;99.90;;;;;;5006850;28;20208;-67
2021/12/04 02:52:40;;;;;;;6.63;3.57;;;3.70;99.90;;;;;;5009583;28;20245;-67
2021/12/04 02:55:07;;;;;;;4.87;2.93;;;3.70;99.90;;;;;;5006090;28;20214;-67
2021/12/04 02:57:38;;;;;;;8.23;3.67;;;3.60;99.90;;;;;;5009341;28;20197;-67
2021/12/04 03:00:05;;;;;;;6.27;3.77;;;3.60;99.90;;;;;;5009547;28;20188;-67
2021/12/04 03:02:32;;;;;;;7.20;3.40;;;3.60;99.90;;;;;;5006312;28;20230;-67
2021/12/04 03:05:02;;;;;;;5.63;3.50;;;3.50;99.90;;;;;;5009301;28;20196;-67
2021/12/04 03:07:28;;;;;;;5.83;3.97;;;3.50;99.90;;;;;;5007917;28;20220;-67
2021/12/04 03:09:55;;;;;;;7.60;3.80;;;3.50;99.90;;;;;;5010206;28;20571;-67
2021/12/04 03:12:23;;;;;;;7.93;3.73;;;3.50;99.90;;;;;;5006539;28;20715;-67
2021/12/04 03:14:52;;;;;;;8.07;3.70;;;3.50;99.90;;;;;;5009315;28;20261;-67
2021/12/04 03:17:21;;;;;;;5.03;3.63;;;3.50;99.90;;;;;;5008315;28;20203;-67
2021/12/04 03:19:52;;;;;;;4.70;3.50;;;3.40;99.90;;;;;;5006252;28;20201;-67
2021/12/04 03:22:21;;;;;;;6.70;3.33;;;3.40;99.90;;;;;;5008652;28;20671;-67
2021/12/04 03:24:48;;;;;;;7.30;4.00;;;3.40;99.90;;;;;;5008971;28;20193;-67
2021/12/04 03:27:16;;;;;;;5.47;3.40;;;3.50;99.90;;;;;;5006851;28;20691;-67
2021/12/04 03:29:49;;;;;;;5.47;3.23;;;3.50;99.90;;;;;;5001584;28;20217;-67
2021/12/04 03:43:03;;;;;;;6.30;3.87;;;3.60;99.90;;;;;;5020730;28;20208;-67
2021/12/04 03:45:29;;;;;;;6.97;4.10;;;3.60;99.90;;;;;;5005920;28;20761;-67
2021/12/04 03:48:03;;;;;;;6.90;3.70;;;3.50;99.90;;;;;;5007532;28;20203;-67
2021/12/04 03:50:29;;;;;;;7.00;4.13;;;3.50;99.90;;;;;;5008265;28;20609;-67
2021/12/04 03:52:57;;;;;;;9.87;5.33;;;3.50;99.90;;;;;;5008660;28;20269;-67
2021/12/04 03:55:25;;;;;;;8.83;5.10;;;3.40;99.90;;;;;;5008303;28;20219;-67
2021/12/04 03:57:52;;;;;;;7.83;4.67;;;3.40;99.90;;;;;;5007039;28;20200;-67
2021/12/04 04:00:19;;;;;;;9.30;4.40;;;3.20;99.90;;;;;;5008204;28;20200;-67
2021/12/04 04:02:46;;;;;;;10.70;4.67;;;3.20;99.90;;;;;;5008196;28;20710;-67
2021/12/04 04:05:14;;;;;;;8.60;4.37;;;3.10;99.90;;;;;;5008606;28;20578;-67
2021/12/04 04:07:41;;;;;;;7.57;3.47;;;3.10;99.90;;;;;;5005345;28;20218;-67
2021/12/04 04:10:08;;;;;;;5.27;3.60;;;3.10;99.90;;;;;;5007115;28;20188;-67
2021/12/04 04:12:35;;;;;;;9.27;4.93;;;3.10;99.90;;;;;;5008481;28;20572;-67
2021/12/04 04:15:02;;;;;;;10.57;5.30;;;3.10;99.90;;;;;;5008826;28;20251;-67
2021/12/04 04:17:31;;;;;;;10.73;5.10;;;3.10;99.90;;;;;;5005745;28;20687;-66
2021/12/04 04:19:58;;;;;;;8.47;5.30;;;3.00;99.90;;;;;;5007352;28;20275;-66
2021/12/04 04:22:25;;;;;;;9.07;5.20;;;2.90;99.90;;;;;;5008666;28;20211;-67
2021/12/04 04:24:52;;;;;;;10.63;5.77;;;2.90;99.90;;;;;;5004891;28;20200;-67
2021/12/04 04:27:18;;;;;;;9.00;5.30;;;2.90;99.90;;;;;;5008336;28;20200;-65
2021/12/04 04:29:45;;;;;;;9.87;4.77;;;2.90;99.90;;;;;;5008722;28;20206;-64
2021/12/04 04:32:11;;;;;;;9.67;5.00;;;2.80;99.90;;;;;;5004244;28;20199;-64
2021/12/04 04:34:38;;;;;;;9.43;5.50;;;2.90;99.90;;;;;;5006789;28;20231;-64
2021/12/04 04:37:24;;;;;;;10.03;4.93;;;2.90;99.90;;;;;;5007595;28;20196;-64
2021/12/04 04:40:19;;;;;;;8.63;5.17;;;2.80;99.90;;;;;;5008332;28;20192;-65
2021/12/04 05:02:33;;;;;;;10.27;5.43;;;2.80;99.90;;;;;;5007501;28;20560;-66
2021/12/04 05:10:53;;;;;;;8.40;5.60;;;2.70;99.90;;;;;;5008485;28;20195;-65
2021/12/04 05:13:21;;;;;;;12.40;6.00;;;2.70;99.90;;;;;;5011276;28;20223;-65
2021/12/04 05:21:04;;;;;;;9.97;5.97;;;2.90;99.90;;;;;;5008995;28;20640;-65
2021/12/04 05:23:34;;;;;;;10.27;5.50;;;3.00;99.90;;;;;;5011471;28;20223;-65
2021/12/04 05:26:03;;;;;;;9.63;5.60;;;2.90;99.90;;;;;;5006658;28;20188;-65
2021/12/04 05:28:30;;;;;;;10.03;5.80;;;2.80;99.90;;;;;;5012869;28;20196;-65
2021/12/04 05:30:57;;;;;;;9.77;5.60;;;2.90;99.90;;;;;;5011235;28;20223;-65
2021/12/04 05:33:25;;;;;;;10.33;5.67;;;2.90;99.90;;;;;;5006494;28;20267;-65
2021/12/04 05:35:52;;;;;;;10.87;5.90;;;2.90;99.90;;;;;;5002292;28;20220;-65
2021/12/04 05:38:19;;;;;;;10.37;5.73;;;2.90;99.90;;;;;;5007754;28;20207;-65
2021/12/04 05:40:47;;;;;;;11.43;6.37;;;2.80;99.90;;;;;;5011235;28;20275;-65
2021/12/04 05:43:14;;;;;;;9.80;5.63;;;2.80;99.90;;;;;;5006111;28;20571;-65
2021/12/04 05:45:46;;;;;;;14.70;6.80;;;2.80;99.90;;;;;;5010121;28;20207;-65
2021/12/04 05:48:19;;;;;;;11.03;6.27;;;2.70;99.90;;;;;;5009454;28;20568;-65
2021/12/04 05:55:58;;;;;;;12.87;6.47;;;2.80;99.90;;;;;;5009744;28;20224;-65
2021/12/04 05:58:30;;;;;;;13.13;6.70;;;2.80;99.90;;;;;;5009661;28;20610;-65
2021/12/04 06:01:00;;;;;;;12.23;6.60;;;2.90;99.90;;;;;;5012430;28;20188;-65
2021/12/04 06:03:27;;;;;;;14.27;6.50;;;2.90;99.90;;;;;;5010131;28;20586;-65
2021/12/04 06:05:54;;;;;;;12.87;5.77;;;2.90;99.90;;;;;;5008743;28;20215;-65
2021/12/04 06:08:21;;;;;;;11.67;6.10;;;2.80;99.90;;;;;;5011053;28;20575;-65
2021/12/04 06:10:49;;;;;;;13.13;7.20;;;2.70;99.90;;;;;;5005485;28;20289;-65
2021/12/04 06:13:16;;;;;;;16.47;7.13;;;2.70;99.90;;;;;;5010022;28;20227;-65
2021/12/04 06:15:43;;;;;;;17.83;7.60;;;2.70;99.90;;;;;;5010297;28;20314;-65
2021/12/04 06:18:11;;;;;;;16.03;6.97;;;2.70;99.90;;;;;;5008535;28;20527;-65
2021/12/04 06:23:23;;;;;;;23.27;7.40;;;2.70;99.90;;;;;;5010406;28;20215;-65
2021/12/04 06:25:50;;;;;;;17.27;7.83;;;2.60;99.90;;;;;;5010329;28;20200;-65
2021/12/04 06:28:17;;;;;;;16.57;7.37;;;2.70;99.90;;;;;;5006696;28;20200;-65
2021/12/04 06:30:44;;;;;;;13.13;7.33;;;2.70;99.90;;;;;;5009913;28;20196;-65
2021/12/04 06:33:13;;;;;;;15.47;7.60;;;2.70;99.90;;;;;;5010245;28;20216;-65
2021/12/04 06:35:41;;;;;;;14.70;7.27;;;2.70;99.90;;;;;;5006064;28;20231;-65
2021/12/04 06:38:09;;;;;;;15.93;7.63;;;2.70;99.90;;;;;;5009025;28;20224;-65
2021/12/04 06:40:38;;;;;;;14.90;7.33;;;2.70;99.90;;;;;;5009764;28;20200;-65
2021/12/04 06:43:06;;;;;;;14.40;7.30;;;2.60;99.90;;;;;;5008363;28;20239;-65
2021/12/04 06:45:36;;;;;;;15.50;8.00;;;2.60;99.90;;;;;;5009102;28;20198;-65
2021/12/04 06:48:07;;;;;;;17.27;8.13;;;2.70;99.90;;;;;;5009722;28;20192;-65
2021/12/04 06:50:47;;;;;;;19.40;8.37;;;2.60;99.90;;;;;;5010143;28;20198;-65
2021/12/04 06:53:54;;;;;;;18.40;9.03;;;2.60;99.90;;;;;;5010932;28;20234;-64
2021/12/04 06:56:11;;;;;;;19.83;8.63;;;2.70;99.90;;;;;;5008758;28;20224;-64
2021/12/04 06:58:38;;;;;;;20.97;9.23;;;2.70;99.90;;;;;;5009549;28;20294;-65
2021/12/04 07:01:10;;;;;;;16.80;7.83;;;2.70;99.90;;;;;;5006762;28;20661;-65
2021/12/04 07:03:38;;;;;;;17.83;8.50;;;2.80;99.90;;;;;;5020844;28;20215;-66
2021/12/04 07:06:06;;;;;;;23.03;9.50;;;2.70;99.90;;;;;;5010557;28;20203;-66
2021/12/04 07:08:33;;;;;;;21.53;9.40;;;2.80;99.90;;;;;;5027606;28;20196;-66
2021/12/04 07:11:03;;;;;;;21.13;10.10;;;2.80;99.90;;;;;;5011713;28;20205;-66
2021/12/04 07:13:31;;;;;;;18.27;8.63;;;2.80;99.90;;;;;;5008857;28;20223;-66
2021/12/04 07:16:03;;;;;;;18.63;9.07;;;2.80;99.90;;;;;;5009524;28;20234;-66
2021/12/04 07:18:31;;;;;;;20.37;9.73;;;2.70;99.90;;;;;;5008402;28;20211;-66
2021/12/04 07:20:59;;;;;;;19.60;9.17;;;2.70;99.90;;;;;;5033055;28;20560;-65
2021/12/04 07:23:26;;;;;;;19.50;9.23;;;2.80;99.90;;;;;;5009089;28;20215;-65
2021/12/04 07:25:53;;;;;;;19.83;8.87;;;2.80;99.90;;;;;;5010620;28;20196;-65
2021/12/04 07:28:20;;;;;;;19.97;8.60;;;2.80;99.90;;;;;;5017105;28;20211;-65
2021/12/04 07:30:46;;;;;;;21.67;8.73;;;2.80;99.90;;;;;;5004758;28;20211;-64
2021/12/04 07:33:13;;;;;;;19.70;9.10;;;2.80;99.90;;;;;;5008140;28;20223;-65
2021/12/04 07:35:40;;;;;;;21.70;8.93;;;2.90;99.90;;;;;;4989022;28;20744;-64
2021/12/04 07:38:07;;;;;;;22.50;9.80;;;2.90;99.90;;;;;;5000515;28;20193;-64
2021/12/04 07:40:33;;;;;;;24.03;9.40;;;2.90;99.90;;;;;;5009400;28;20192;-65
2021/12/04 07:43:00;;;;;;;20.37;9.47;;;3.00;99.90;;;;;;5009571;28;20216;-65
2021/12/04 07:45:27;;;;;;;23.10;10.23;;;3.00;99.90;;;;;;5007558;28;20192;-65
2021/12/04 07:47:54;;;;;;;18.80;9.17;;;3.00;99.90;;;;;;5012203;28;20196;-65
2021/12/04 07:50:21;;;;;;;20.70;9.57;;;3.10;99.90;;;;;;5009012;28;20395;-65
2021/12/04 07:52:49;;;;;;;21.90;9.37;;;3.00;99.90;;;;;;5010036;28;20223;-65
2021/12/04 07:55:16;;;;;;;17.43;9.60;;;3.10;99.90;;;;;;5009911;28;20219;-66
2021/12/04 07:57:43;;;;;;;19.93;9.17;;;3.10;99.90;;;;;;5011009;28;20210;-66
2021/12/04 08:00:13;;;;;;;21.30;9.47;;;3.10;99.90;;;;;;5027367;28;20210;-66
2021/12/04 08:02:41;;;;;;;20.00;9.17;;;3.00;99.90;;;;;;5004937;28;20223;-70
2021/12/04 08:05:10;;;;;;;19.70;9.60;;;3.10;99.90;;;;;;4999558;28;20231;-66
2021/12/04 08:07:38;;;;;;;22.07;9.43;;;3.20;99.90;;;;;;5005433;28;20200;-65
2021/12/04 08:10:08;;;;;;;21.27;9.63;;;3.20;99.90;;;;;;5011024;28;20203;-65
2021/12/04 08:12:36;;;;;;;22.63;10.43;;;3.30;99.90;;;;;;5009322;28;20231;-67
2021/12/04 08:15:04;;;;;;;22.97;10.43;;;3.20;99.90;;;;;;5008690;28;20209;-66
2021/12/04 08:17:31;;;;;;;20.07;9.37;;;3.20;99.90;;;;;;5005628;28;20204;-65
2021/12/04 08:19:58;;;;;;;22.27;10.07;;;3.20;99.90;;;;;;5009060;28;20089;-68
2021/12/04 08:22:25;;;;;;;24.80;10.47;;;3.20;99.90;;;;;;5008175;28;20546;-66
2021/12/04 08:24:51;;;;;;;23.57;10.00;;;3.20;99.90;;;;;;5004574;28;20202;-68
2021/12/04 08:27:19;;;;;;;22.00;9.27;;;3.20;99.90;;;;;;5008277;28;20423;-66
2021/12/04 08:29:46;;;;;;;20.43;9.90;;;3.40;99.90;;;;;;5018410;28;20195;-68
2021/12/04 08:32:12;;;;;;;21.57;10.27;;;3.30;99.90;;;;;;5013215;28;20189;-68
2021/12/04 08:34:39;;;;;;;22.23;10.00;;;3.40;99.90;;;;;;5006747;28;20211;-68
2021/12/04 08:37:06;;;;;;;24.03;10.50;;;3.40;99.90;;;;;;5003091;28;20219;-66
2021/12/04 08:39:33;;;;;;;23.37;9.77;;;3.50;99.90;;;;;;5005249;28;20207;-65
2021/12/04 08:42:00;;;;;;;26.87;10.73;;;3.50;99.90;;;;;;5009180;28;20205;-64
2021/12/04 08:44:27;;;;;;;22.43;9.67;;;3.60;99.90;;;;;;5015826;28;20188;-66
2021/12/04 08:46:53;;;;;;;24.23;10.73;;;3.50;99.90;;;;;;5014833;28;20517;-66
2021/12/04 08:49:20;;;;;;;29.60;11.17;;;3.60;99.90;;;;;;5024360;28;20196;-72
2021/12/04 08:51:47;;;;;;;24.27;10.33;;;3.60;99.90;;;;;;5007630;28;20204;-67
2021/12/04 08:54:14;;;;;;;22.57;10.37;;;3.70;99.90;;;;;;5004823;28;20218;-67
2021/12/04 08:56:41;;;;;;;25.97;9.93;;;3.70;99.90;;;;;;5011268;28;20232;-67
2021/12/04 08:59:08;;;;;;;22.23;10.20;;;3.70;99.90;;;;;;5011154;28;20209;-67
2021/12/04 09:01:38;;;;;;;26.03;10.37;;;3.70;99.90;;;;;;5009986;28;20279;-67
2021/12/04 09:04:10;;;;;;;24.07;9.77;;;3.80;99.90;;;;;;5009894;28;20251;-67
2021/12/04 09:06:38;;;;;;;25.03;9.77;;;3.90;99.90;;;;;;5007060;28;20196;-67
2021/12/04 09:09:07;;;;;;;22.93;10.27;;;3.90;99.90;;;;;;5006298;28;20193;-67
2021/12/04 09:11:39;;;;;;;24.73;10.60;;;3.90;99.90;;;;;;5007506;28;20208;-67
2021/12/04 09:14:06;;;;;;;21.07;10.10;;;4.00;99.90;;;;;;5007778;28;20215;-67
2021/12/04 09:16:33;;;;;;;21.80;9.93;;;4.10;99.90;;;;;;5004257;28;20620;-67
2021/12/04 09:19:00;;;;;;;19.83;9.20;;;4.20;99.90;;;;;;5011690;28;20189;-67
2021/12/04 09:21:28;;;;;;;22.97;9.93;;;4.10;99.90;;;;;;5011472;28;20198;-67
2021/12/04 09:24:14;;;;;;;19.50;10.10;;;4.10;99.90;;;;;;5008414;28;20210;-66
2021/12/04 09:35:16;;;;;;;17.40;8.77;;;4.10;99.90;;;;;;4990935;28;20555;-67
2021/12/04 10:02:13;;;;;;;14.93;7.73;;;4.50;99.90;;;;;;5005605;28;20197;-69
2021/12/04 10:21:33;;;;;;;17.67;7.80;;;4.90;99.90;;;;;;5011350;28;20199;-69
2021/12/04 10:34:53;;;;;;;18.03;8.37;;;5.20;99.90;;;;;;5010065;28;20203;-68
2021/12/04 10:37:25;;;;;;;17.37;7.57;;;5.20;99.90;;;;;;5008630;28;20219;-69
2021/12/04 10:39:54;;;;;;;19.53;8.53;;;5.10;99.90;;;;;;5011109;28;20207;-74
2021/12/04 10:42:34;;;;;;;18.07;8.03;;;5.10;99.90;;;;;;5011805;28;20224;-68
2021/12/04 10:45:01;;;;;;;17.27;8.00;;;5.10;99.90;;;;;;5011835;28;20206;-69
2021/12/04 10:47:28;;;;;;;13.90;6.87;;;5.20;99.90;;;;;;5008001;28;20207;-69
2021/12/04 10:50:30;;;;;;;14.93;7.27;;;5.30;99.90;;;;;;5009549;28;20220;-69
2021/12/04 10:53:04;;;;;;;13.87;6.77;;;5.20;99.90;;;;;;5011870;28;20231;-69
2021/12/04 10:55:48;;;;;;;14.37;7.13;;;5.30;99.90;;;;;;5007566;28;20550;-69
2021/12/04 11:42:55;;;;;;;16.60;8.17;;;5.30;99.90;;;;;;5008591;28;20215;-67
2021/12/04 11:45:28;;;;;;;14.17;7.40;;;5.30;99.90;;;;;;5010396;28;20215;-67
2021/12/04 11:48:00;;;;;;;13.83;7.27;;;5.50;99.90;;;;;;5007674;28;20204;-67
2021/12/04 11:50:29;;;;;;;16.47;7.73;;;5.50;99.90;;;;;;4995088;28;20565;-69
2021/12/04 11:53:00;;;;;;;18.20;8.27;;;5.40;99.90;;;;;;5010149;28;20239;-70
2021/12/04 11:55:31;;;;;;;16.23;8.20;;;5.40;99.90;;;;;;5010393;28;20204;-69
2021/12/04 11:58:00;;;;;;;16.00;8.27;;;5.50;99.90;;;;;;5007576;28;20223;-68
2021/12/04 12:00:35;;;;;;;14.57;7.27;;;5.40;99.90;;;;;;5009764;28;20192;-68
2021/12/04 12:03:14;;;;;;;15.80;8.20;;;5.40;99.90;;;;;;5008476;28;20261;-68
2021/12/04 12:05:48;;;;;;;15.97;7.70;;;5.40;99.90;;;;;;5007607;28;20285;-68
2021/12/04 12:08:42;;;;;;;16.50;7.90;;;5.50;99.90;;;;;;5005067;28;20192;-68
2021/12/04 12:11:11;;;;;;;17.37;7.83;;;5.50;99.90;;;;;;5009424;28;20224;-68
2021/12/04 12:13:46;;;;;;;15.50;7.93;;;5.70;99.90;;;;;;5013414;28;20278;-69
2021/12/04 12:16:25;;;;;;;14.70;7.60;;;5.70;99.90;;;;;;5008504;28;20197;-68
2021/12/04 12:19:10;;;;;;;16.83;7.53;;;5.70;99.90;;;;;;5014472;28;20242;-68
2021/12/04 12:21:52;;;;;;;14.60;7.57;;;5.70;99.90;;;;;;5014734;28;20210;-68
2021/12/04 12:36:14;;;;;;;18.83;6.83;;;5.60;99.90;;;;;;5011663;28;20211;-68
2021/12/04 12:38:47;;;;;;;21.93;7.97;;;5.60;99.90;;;;;;5013273;28;20184;-68
2021/12/04 12:41:31;;;;;;;13.47;6.03;;;5.70;99.90;;;;;;5013339;28;20569;-68
2021/12/04 12:44:14;;;;;;;15.80;6.37;;;5.70;99.90;;;;;;5000970;28;20213;-68
2021/12/04 12:46:45;;;;;;;11.90;5.83;;;5.60;99.90;;;;;;5009173;28;20234;-68
2021/12/04 12:49:34;;;;;;;11.93;6.17;;;5.70;99.90;;;;;;5010947;28;20244;-68
2021/12/04 12:52:23;;;;;;;11.00;6.10;;;5.50;99.90;;;;;;5011676;28;20208;-68
2021/12/04 12:55:02;;;;;;;18.37;7.93;;;5.50;99.90;;;;;;5013085;28;20205;-68
2021/12/04 12:57:42;;;;;;;15.67;7.80;;;5.20;99.90;;;;;;5011295;28;20250;-69
2021/12/04 13:11:47;;;;;;;16.67;7.20;;;5.20;99.90;;;;;;4993607;28;20661;-67
2021/12/04 13:14:45;;;;;;;14.00;7.27;;;5.10;99.90;;;;;;5004988;28;20264;-66
2021/12/04 13:17:17;;;;;;;13.93;6.80;;;5.30;99.90;;;;;;5011554;28;20223;-68
2021/12/04 13:19:48;;;;;;;15.23;7.10;;;5.30;99.90;;;;;;4993331;28;20207;-68
2021/12/04 13:22:27;;;;;;;15.43;7.50;;;5.30;99.90;;;;;;5007592;28;20188;-68
2021/12/04 13:24:56;;;;;;;14.47;6.97;;;5.20;99.90;;;;;;5011482;28;20204;-68
2021/12/04 13:29:57;;;;;;;14.90;7.30;;;5.10;99.90;;;;;;5011731;28;20203;-68
2021/12/04 13:32:34;;;;;;;14.07;7.17;;;5.20;99.90;;;;;;5012428;28;20241;-69
2021/12/04 13:35:22;;;;;;;12.03;6.00;;;5.20;99.90;;;;;;5011641;28;20195;-70
2021/12/04 13:37:54;;;;;;;16.87;7.87;;;5.20;99.90;;;;;;5012984;28;20222;-69
2021/12/04 13:40:21;;;;;;;13.97;6.70;;;5.10;99.90;;;;;;5011339;28;20188;-69
2021/12/04 13:42:48;;;;;;;15.87;7.60;;;5.20;99.90;;;;;;5012195;28;20208;-69
2021/12/04 13:45:19;;;;;;;19.00;7.23;;;5.10;99.90;;;;;;5012553;28;20199;-69
2021/12/04 13:47:57;;;;;;;14.90;7.23;;;4.80;99.90;;;;;;5013213;28;20260;-70
2021/12/04 13:52:58;;;;;;;13.63;7.60;;;5.00;99.90;;;;;;5009530;28;20624;-70
2021/12/04 13:55:27;;;;;;;10.70;5.90;;;5.10;99.90;;;;;;5012633;28;20580;-70
2021/12/04 13:57:57;;;;;;;12.30;6.77;;;5.10;99.90;;;;;;5012581;28;20732;-71
2021/12/04 14:00:24;;;;;;;14.43;7.97;;;4.90;99.90;;;;;;5010915;28;20210;-71
2021/12/04 14:02:51;;;;;;;16.77;7.70;;;4.90;99.90;;;;;;5009087;28;20209;-70
2021/12/04 14:05:32;;;;;;;11.90;6.00;;;4.80;99.90;;;;;;5012311;28;20217;-70
2021/12/04 14:08:01;;;;;;;11.43;5.87;;;5.00;99.90;;;;;;5007241;28;20660;-69
2021/12/04 14:10:44;;;;;;;14.00;6.70;;;5.00;99.90;;;;;;5011119;28;20204;-69
2021/12/04 14:13:16;;;;;;;11.80;5.73;;;4.90;99.90;;;;;;5011202;28;20222;-70
2021/12/04 14:15:47;;;;;;;12.03;6.33;;;4.90;99.90;;;;;;5010594;28;20660;-69
2021/12/04 14:18:17;;;;;;;12.57;6.47;;;5.00;99.90;;;;;;5011814;28;20659;-71
2021/12/04 14:20:48;;;;;;;12.23;6.17;;;5.20;99.90;;;;;;5010013;28;20298;-71
2021/12/04 14:23:15;;;;;;;11.70;6.73;;;5.10;99.90;;;;;;5010315;28;20219;-69
2021/12/04 14:25:43;;;;;;;13.13;6.43;;;5.20;99.90;;;;;;5007578;28;20201;-70
2021/12/04 14:28:14;;;;;;;13.23;6.37;;;5.30;99.90;;;;;;5011352;28;20192;-69
2021/12/04 14:30:44;;;;;;;10.30;5.60;;;5.20;99.90;;;;;;5012158;28;20609;-68
2021/12/04 14:33:15;;;;;;;12.73;6.77;;;5.30;99.90;;;;;;5011930;28;20597;-69
2021/12/04 14:35:44;;;;;;;10.57;5.90;;;5.30;99.90;;;;;;5010631;28;20211;-69
2021/12/04 14:38:18;;;;;;;10.43;5.47;;;5.40;99.90;;;;;;5011058;28;20222;-69
2021/12/04 14:40:52;;;;;;;10.20;6.10;;;5.40;99.90;;;;;;5011821;28;20196;-69
2021/12/04 14:43:22;;;;;;;10.27;5.87;;;5.40;99.90;;;;;;5007000;28;20212;-69
2021/12/04 14:45:51;;;;;;;9.13;5.37;;;5.20;99.90;;;;;;5010521;28;20660;-69
2021/12/04 14:48:35;;;;;;;9.87;5.70;;;5.30;99.90;;;;;;5009751;28;20204;-69
2021/12/04 14:51:13;;;;;;;10.83;6.13;;;5.30;99.90;;;;;;5011491;28;20704;-67
2021/12/04 14:53:56;;;;;;;11.70;5.57;;;5.40;99.90;;;;;;5008676;28;20246;-67
2021/12/04 14:56:26;;;;;;;10.80;5.90;;;5.40;99.90;;;;;;5007151;28;20198;-67
2021/12/04 14:58:52;;;;;;;9.90;5.40;;;5.40;99.90;;;;;;5011129;28;20224;-67
2021/12/04 15:01:21;;;;;;;11.10;5.67;;;5.40;99.90;;;;;;5005119;28;20584;-69
2021/12/04 15:03:59;;;;;;;11.47;6.20;;;5.40;99.90;;;;;;5009454;28;20306;-68
2021/12/04 15:06:28;;;;;;;11.90;6.50;;;5.40;99.90;;;;;;5010403;28;20609;-68
2021/12/04 15:09:01;;;;;;;16.87;7.23;;;5.30;99.90;;;;;;5008036;28;20213;-68
2021/12/04 15:11:32;;;;;;;11.07;6.17;;;5.40;99.90;;;;;;5010548;28;20201;-68
2021/12/04 15:14:07;;;;;;;9.43;5.57;;;5.40;99.90;;;;;;5010883;28;20705;-68
2021/12/04 15:16:42;;;;;;;9.50;5.67;;;5.40;99.90;;;;;;5009381;28;20201;-68
2021/12/04 15:19:19;;;;;;;8.63;5.67;;;5.40;99.90;;;;;;5006242;28;20214;-68
2021/12/04 15:21:59;;;;;;;10.43;5.37;;;5.30;99.90;;;;;;5010878;28;20192;-68
2021/12/04 15:24:32;;;;;;;7.87;5.20;;;5.30;99.90;;;;;;5011281;28;20227;-68
2021/12/04 15:27:03;;;;;;;9.50;5.80;;;5.40;99.90;;;;;;5008625;28;20656;-68
2021/12/04 15:29:36;;;;;;;9.67;5.33;;;5.30;99.90;;;;;;5010123;28;20647;-68
2021/12/04 15:32:09;;;;;;;8.03;5.13;;;5.40;99.90;;;;;;5009392;28;20198;-68
2021/12/04 15:34:47;;;;;;;8.63;5.30;;;5.40;99.90;;;;;;5010654;28;20207;-69
2021/12/04 15:37:24;;;;;;;10.53;5.77;;;5.40;99.90;;;;;;5005073;28;20216;-69
2021/12/04 15:39:50;;;;;;;9.97;5.37;;;5.50;99.90;;;;;;5008355;28;20200;-68
2021/12/04 15:42:28;;;;;;;9.03;5.30;;;5.70;99.90;;;;;;5010723;28;20200;-69
2021/12/04 15:45:15;;;;;;;7.50;5.03;;;5.70;99.90;;;;;;5010121;28;20192;-69
2021/12/04 15:47:52;;;;;;;9.97;5.50;;;5.50;99.90;;;;;;5006623;28;20206;-68
2021/12/04 15:50:48;;;;;;;11.10;5.50;;;5.20;99.90;;;;;;5005627;28;20227;-66
2021/12/04 15:53:15;;;;;;;8.40;5.23;;;5.40;99.90;;;;;;5009599;28;20228;-69
2021/12/04 15:55:47;;;;;;;11.37;6.30;;;5.40;99.90;;;;;;5008810;28;20600;-69
2021/12/04 15:58:17;;;;;;;12.27;6.47;;;5.30;99.90;;;;;;4990807;28;20229;-66
2021/12/04 16:00:53;;;;;;;11.60;6.63;;;5.10;99.90;;;;;;4996447;28;20664;-69
2021/12/04 16:03:23;;;;;;;12.67;6.63;;;5.10;99.90;;;;;;5037619;28;20214;-69
2021/12/04 16:05:55;;;;;;;10.23;5.97;;;5.10;99.90;;;;;;5009500;28;20237;-66
2021/12/04 16:08:28;;;;;;;10.70;6.43;;;5.20;99.90;;;;;;5008800;28;20199;-66
2021/12/04 16:11:14;;;;;;;11.87;6.73;;;5.20;99.90;;;;;;5006905;28;20222;-66
2021/12/04 16:13:49;;;;;;;14.03;6.50;;;5.10;99.90;;;;;;5005740;28;20243;-67
2021/12/04 16:16:22;;;;;;;10.87;6.07;;;5.10;99.90;;;;;;4990523;28;20298;-67
2021/12/04 16:18:55;;;;;;;11.10;6.20;;;5.20;99.90;;;;;;5003052;28;20216;-66
2021/12/04 16:21:23;;;;;;;9.90;5.63;;;5.20;99.90;;;;;;5007687;28;20203;-67
2021/12/04 16:23:52;;;;;;;11.67;6.90;;;5.20;99.90;;;;;;5011485;28;20220;-68